sensor_id;sensor_type;location;lat;lon;timestamp;pressure;altitude;pressure_sealevel;temperature;humidity
74958;BME280;63741;42.624;26.276;2022-11-09T00:00:53;100450.22;;;9.07;72.42
74958;BME280;63741;42.624;26.276;2022-11-09T00:03:20;100451.47;;;9.16;71.36
74958;BME280;63741;42.624;26.276;2022-11-09T00:05:57;100450.72;;;9.28;71.46
74958;BME280;63741;42.624;26.276;2022-11-09T00:08:25;100446.31;;;9.29;70.41
74958;BME280;63741;42.624;26.276;2022-11-09T00:10:51;100457.16;;;9.24;71.22
74958;BME280;63741;42.624;26.276;2022-11-09T00:13:19;100454.50;;;9.24;71.09
74958;BME280;63741;42.624;26.276;2022-11-09T00:15:47;100459.13;;;9.21;71.08
74958;BME280;63741;42.624;26.276;2022-11-09T00:18:14;100452.03;;;9.21;70.43
74958;BME280;63741;42.624;26.276;2022-11-09T00:20:41;100456.38;;;9.22;71.24
74958;BME280;63741;42.624;26.276;2022-11-09T00:23:14;100453.97;;;9.33;70.31
74958;BME280;63741;42.624;26.276;2022-11-09T00:25:42;100449.81;;;9.44;69.80
74958;BME280;63741;42.624;26.276;2022-11-09T00:28:08;100442.75;;;9.44;69.55
74958;BME280;63741;42.624;26.276;2022-11-09T00:30:35;100451.41;;;9.32;70.25
74958;BME280;63741;42.624;26.276;2022-11-09T00:33:02;100452.38;;;9.45;70.72
74958;BME280;63741;42.624;26.276;2022-11-09T00:35:29;100452.16;;;9.34;70.20
74958;BME280;63741;42.624;26.276;2022-11-09T00:37:56;100451.22;;;9.35;70.74
74958;BME280;63741;42.624;26.276;2022-11-09T00:40:23;100439.94;;;9.47;70.49
74958;BME280;63741;42.624;26.276;2022-11-09T00:42:50;100437.03;;;9.52;70.37
74958;BME280;63741;42.624;26.276;2022-11-09T00:45:17;100438.50;;;9.42;71.10
74958;BME280;63741;42.624;26.276;2022-11-09T00:47:44;100427.28;;;9.38;70.08
74958;BME280;63741;42.624;26.276;2022-11-09T00:50:11;100438.88;;;9.35;70.98
74958;BME280;63741;42.624;26.276;2022-11-09T00:52:37;100443.78;;;9.42;71.43
74958;BME280;63741;42.624;26.276;2022-11-09T00:55:05;100434.44;;;9.50;70.25
74958;BME280;63741;42.624;26.276;2022-11-09T00:57:32;100432.88;;;9.48;69.68
74958;BME280;63741;42.624;26.276;2022-11-09T00:59:59;100433.81;;;9.47;70.25
74958;BME280;63741;42.624;26.276;2022-11-09T01:02:26;100428.81;;;9.56;69.77
74958;BME280;63741;42.624;26.276;2022-11-09T01:04:55;100434.00;;;9.58;70.08
74958;BME280;63741;42.624;26.276;2022-11-09T01:07:24;100430.13;;;9.49;70.27
74958;BME280;63741;42.624;26.276;2022-11-09T01:09:51;100431.53;;;9.41;69.62
74958;BME280;63741;42.624;26.276;2022-11-09T01:12:18;100419.09;;;9.43;69.99
74958;BME280;63741;42.624;26.276;2022-11-09T01:14:45;100426.25;;;9.41;69.56
74958;BME280;63741;42.624;26.276;2022-11-09T01:17:12;100428.13;;;9.39;70.30
74958;BME280;63741;42.624;26.276;2022-11-09T01:19:38;100429.84;;;9.09;70.63
74958;BME280;63741;42.624;26.276;2022-11-09T01:22:05;100428.69;;;8.99;71.09
74958;BME280;63741;42.624;26.276;2022-11-09T01:24:32;100427.22;;;9.09;70.33
74958;BME280;63741;42.624;26.276;2022-11-09T01:26:59;100421.59;;;8.85;70.81
74958;BME280;63741;42.624;26.276;2022-11-09T01:29:26;100416.25;;;8.55;70.61
74958;BME280;63741;42.624;26.276;2022-11-09T01:31:54;100426.38;;;8.47;71.17
74958;BME280;63741;42.624;26.276;2022-11-09T01:34:21;100430.88;;;8.29;72.55
74958;BME280;63741;42.624;26.276;2022-11-09T01:36:49;100427.59;;;8.57;71.67
74958;BME280;63741;42.624;26.276;2022-11-09T01:39:18;100427.03;;;8.82;70.06
74958;BME280;63741;42.624;26.276;2022-11-09T01:41:45;100429.53;;;8.54;70.78
74958;BME280;63741;42.624;26.276;2022-11-09T01:44:15;100430.81;;;8.63;70.88
74958;BME280;63741;42.624;26.276;2022-11-09T01:49:37;100437.69;;;8.65;70.98
74958;BME280;63741;42.624;26.276;2022-11-09T01:52:13;100443.66;;;8.69;70.15
74958;BME280;63741;42.624;26.276;2022-11-09T01:54:48;100441.78;;;8.71;70.14
74958;BME280;63741;42.624;26.276;2022-11-09T01:57:21;100441.69;;;8.72;70.48
74958;BME280;63741;42.624;26.276;2022-11-09T01:59:55;100444.59;;;8.68;70.08
74958;BME280;63741;42.624;26.276;2022-11-09T02:02:24;100444.69;;;8.50;71.02
74958;BME280;63741;42.624;26.276;2022-11-09T02:04:55;100446.69;;;8.61;71.54
74958;BME280;63741;42.624;26.276;2022-11-09T02:07:24;100449.19;;;8.64;71.44
74958;BME280;63741;42.624;26.276;2022-11-09T02:09:57;100445.91;;;8.75;70.85
74958;BME280;63741;42.624;26.276;2022-11-09T02:12:28;100441.31;;;8.78;70.28
74958;BME280;63741;42.624;26.276;2022-11-09T02:14:59;100443.28;;;8.75;70.49
74958;BME280;63741;42.624;26.276;2022-11-09T02:17:28;100447.13;;;8.69;70.58
74958;BME280;63741;42.624;26.276;2022-11-09T02:19:58;100448.06;;;8.68;70.78
74958;BME280;63741;42.624;26.276;2022-11-09T02:22:27;100453.19;;;8.71;70.11
74958;BME280;63741;42.624;26.276;2022-11-09T02:24:54;100449.19;;;8.64;69.57
74958;BME280;63741;42.624;26.276;2022-11-09T02:27:23;100444.31;;;8.56;70.62
74958;BME280;63741;42.624;26.276;2022-11-09T02:29:51;100458.63;;;8.68;70.68
74958;BME280;63741;42.624;26.276;2022-11-09T02:32:23;100460.41;;;8.52;70.98
74958;BME280;63741;42.624;26.276;2022-11-09T02:34:54;100452.50;;;8.52;71.95
74958;BME280;63741;42.624;26.276;2022-11-09T02:37:28;100453.44;;;8.67;71.04
74958;BME280;63741;42.624;26.276;2022-11-09T02:39:56;100446.91;;;8.58;70.50
74958;BME280;63741;42.624;26.276;2022-11-09T02:42:24;100448.50;;;8.60;70.93
74958;BME280;63741;42.624;26.276;2022-11-09T02:44:54;100450.91;;;8.49;70.51
74958;BME280;63741;42.624;26.276;2022-11-09T02:47:22;100456.50;;;8.59;69.71
74958;BME280;63741;42.624;26.276;2022-11-09T02:49:49;100454.47;;;8.48;69.82
74958;BME280;63741;42.624;26.276;2022-11-09T02:52:17;100452.91;;;8.60;70.24
74958;BME280;63741;42.624;26.276;2022-11-09T02:54:44;100448.84;;;8.54;69.72
74958;BME280;63741;42.624;26.276;2022-11-09T02:57:11;100443.13;;;8.30;71.09
74958;BME280;63741;42.624;26.276;2022-11-09T02:59:38;100446.34;;;8.20;70.28
74958;BME280;63741;42.624;26.276;2022-11-09T03:02:06;100446.94;;;8.09;70.39
74958;BME280;63741;42.624;26.276;2022-11-09T03:04:33;100447.97;;;8.22;70.60
74958;BME280;63741;42.624;26.276;2022-11-09T03:07:00;100441.47;;;8.12;69.77
74958;BME280;63741;42.624;26.276;2022-11-09T03:09:29;100444.91;;;8.14;70.28
74958;BME280;63741;42.624;26.276;2022-11-09T03:11:55;100447.38;;;8.17;69.48
74958;BME280;63741;42.624;26.276;2022-11-09T03:14:23;100444.81;;;8.16;69.67
74958;BME280;63741;42.624;26.276;2022-11-09T03:16:54;100452.72;;;8.16;69.09
74958;BME280;63741;42.624;26.276;2022-11-09T03:19:21;100445.91;;;8.11;70.43
74958;BME280;63741;42.624;26.276;2022-11-09T03:21:50;100453.91;;;8.10;69.78
74958;BME280;63741;42.624;26.276;2022-11-09T03:24:21;100452.75;;;7.98;70.96
74958;BME280;63741;42.624;26.276;2022-11-09T03:26:50;100455.34;;;8.00;70.64
74958;BME280;63741;42.624;26.276;2022-11-09T03:29:17;100454.19;;;7.88;70.16
74958;BME280;63741;42.624;26.276;2022-11-09T03:31:44;100449.31;;;7.65;69.95
74958;BME280;63741;42.624;26.276;2022-11-09T03:34:11;100445.03;;;7.62;71.13
74958;BME280;63741;42.624;26.276;2022-11-09T03:36:38;100449.09;;;7.52;71.75
74958;BME280;63741;42.624;26.276;2022-11-09T03:39:05;100448.94;;;7.55;71.16
74958;BME280;63741;42.624;26.276;2022-11-09T03:41:32;100440.25;;;7.53;70.24
74958;BME280;63741;42.624;26.276;2022-11-09T03:44:00;100452.09;;;7.44;71.61
74958;BME280;63741;42.624;26.276;2022-11-09T03:46:26;100451.94;;;7.65;71.22
74958;BME280;63741;42.624;26.276;2022-11-09T03:48:53;100449.75;;;7.73;69.64
74958;BME280;63741;42.624;26.276;2022-11-09T03:51:20;100456.59;;;7.59;70.36
74958;BME280;63741;42.624;26.276;2022-11-09T03:53:47;100453.59;;;7.32;71.22
74958;BME280;63741;42.624;26.276;2022-11-09T03:56:14;100458.06;;;7.30;72.13
74958;BME280;63741;42.624;26.276;2022-11-09T03:58:41;100451.97;;;7.30;71.47
74958;BME280;63741;42.624;26.276;2022-11-09T04:01:07;100454.28;;;7.36;71.14
74958;BME280;63741;42.624;26.276;2022-11-09T04:03:34;100462.16;;;7.36;70.78
74958;BME280;63741;42.624;26.276;2022-11-09T04:06:01;100457.75;;;7.37;71.12
74958;BME280;63741;42.624;26.276;2022-11-09T04:08:28;100449.44;;;7.28;71.24
74958;BME280;63741;42.624;26.276;2022-11-09T04:10:55;100459.84;;;7.47;69.81
74958;BME280;63741;42.624;26.276;2022-11-09T04:13:23;100442.38;;;7.46;68.99
74958;BME280;63741;42.624;26.276;2022-11-09T04:15:50;100444.22;;;7.44;69.84
74958;BME280;63741;42.624;26.276;2022-11-09T04:18:16;100452.56;;;7.52;68.69
74958;BME280;63741;42.624;26.276;2022-11-09T04:20:43;100453.13;;;7.59;68.71
74958;BME280;63741;42.624;26.276;2022-11-09T04:23:12;100453.56;;;7.50;69.03
74958;BME280;63741;42.624;26.276;2022-11-09T04:25:40;100459.53;;;7.53;68.47
74958;BME280;63741;42.624;26.276;2022-11-09T04:28:16;100463.84;;;7.54;68.78
74958;BME280;63741;42.624;26.276;2022-11-09T04:30:43;100458.94;;;7.31;67.61
74958;BME280;63741;42.624;26.276;2022-11-09T04:33:10;100459.56;;;7.01;68.17
74958;BME280;63741;42.624;26.276;2022-11-09T04:35:37;100454.22;;;7.03;68.22
74958;BME280;63741;42.624;26.276;2022-11-09T04:38:06;100460.88;;;6.93;69.47
74958;BME280;63741;42.624;26.276;2022-11-09T04:40:34;100458.22;;;6.93;68.71
74958;BME280;63741;42.624;26.276;2022-11-09T04:43:03;100455.75;;;6.90;69.27
74958;BME280;63741;42.624;26.276;2022-11-09T04:45:32;100463.00;;;6.84;69.77
74958;BME280;63741;42.624;26.276;2022-11-09T04:48:01;100465.31;;;6.91;69.12
74958;BME280;63741;42.624;26.276;2022-11-09T04:50:29;100460.88;;;6.93;70.28
74958;BME280;63741;42.624;26.276;2022-11-09T04:53:22;100468.59;;;6.96;69.55
74958;BME280;63741;42.624;26.276;2022-11-09T04:55:50;100465.66;;;7.02;69.64
74958;BME280;63741;42.624;26.276;2022-11-09T04:58:17;100473.38;;;7.05;69.84
74958;BME280;63741;42.624;26.276;2022-11-09T05:00:50;100466.56;;;7.01;69.61
74958;BME280;63741;42.624;26.276;2022-11-09T05:03:17;100475.13;;;7.06;69.67
74958;BME280;63741;42.624;26.276;2022-11-09T05:05:45;100478.19;;;7.14;68.45
74958;BME280;63741;42.624;26.276;2022-11-09T05:08:14;100475.66;;;7.13;68.24
74958;BME280;63741;42.624;26.276;2022-11-09T05:10:41;100487.41;;;7.05;67.94
74958;BME280;63741;42.624;26.276;2022-11-09T05:13:10;100478.31;;;6.76;69.32
74958;BME280;63741;42.624;26.276;2022-11-09T05:15:38;100485.44;;;6.55;69.63
74958;BME280;63741;42.624;26.276;2022-11-09T05:18:06;100484.53;;;6.74;68.60
74958;BME280;63741;42.624;26.276;2022-11-09T05:20:34;100489.00;;;6.91;68.80
74958;BME280;63741;42.624;26.276;2022-11-09T05:23:01;100484.19;;;6.81;69.40
74958;BME280;63741;42.624;26.276;2022-11-09T05:25:47;100492.72;;;7.04;69.38
74958;BME280;63741;42.624;26.276;2022-11-09T05:28:14;100485.84;;;7.19;68.01
74958;BME280;63741;42.624;26.276;2022-11-09T05:30:41;100488.84;;;7.63;68.33
74958;BME280;63741;42.624;26.276;2022-11-09T05:33:07;100495.56;;;8.19;65.57
74958;BME280;63741;42.624;26.276;2022-11-09T05:35:34;100499.84;;;8.22;65.50
74958;BME280;63741;42.624;26.276;2022-11-09T05:38:01;100489.63;;;8.31;65.00
74958;BME280;63741;42.624;26.276;2022-11-09T05:40:28;100498.25;;;8.51;65.56
74958;BME280;63741;42.624;26.276;2022-11-09T05:42:55;100505.56;;;8.61;64.97
74958;BME280;63741;42.624;26.276;2022-11-09T05:45:22;100512.13;;;8.70;64.70
74958;BME280;63741;42.624;26.276;2022-11-09T05:48:12;100511.38;;;8.68;63.98
74958;BME280;63741;42.624;26.276;2022-11-09T05:50:40;100513.91;;;8.70;64.63
74958;BME280;63741;42.624;26.276;2022-11-09T05:53:13;100513.22;;;8.82;63.96
74958;BME280;63741;42.624;26.276;2022-11-09T05:55:40;100517.66;;;8.66;64.90
74958;BME280;63741;42.624;26.276;2022-11-09T05:58:07;100517.81;;;8.94;64.67
74958;BME280;63741;42.624;26.276;2022-11-09T06:00:34;100520.88;;;9.32;64.29
74958;BME280;63741;42.624;26.276;2022-11-09T06:03:09;100525.19;;;9.49;63.57
74958;BME280;63741;42.624;26.276;2022-11-09T06:05:38;100530.56;;;9.78;63.12
74958;BME280;63741;42.624;26.276;2022-11-09T06:08:15;100522.16;;;10.00;62.53
74958;BME280;63741;42.624;26.276;2022-11-09T06:10:42;100525.28;;;10.21;62.67
74958;BME280;63741;42.624;26.276;2022-11-09T06:13:10;100536.53;;;10.38;62.61
74958;BME280;63741;42.624;26.276;2022-11-09T06:15:37;100539.00;;;10.42;62.15
74958;BME280;63741;42.624;26.276;2022-11-09T06:18:04;100536.31;;;10.13;63.47
74958;BME280;63741;42.624;26.276;2022-11-09T06:20:30;100540.31;;;10.06;63.95
74958;BME280;63741;42.624;26.276;2022-11-09T06:23:00;100543.97;;;10.75;61.79
74958;BME280;63741;42.624;26.276;2022-11-09T06:25:31;100544.81;;;11.02;61.73
74958;BME280;63741;42.624;26.276;2022-11-09T06:27:58;100537.44;;;11.47;59.57
74958;BME280;63741;42.624;26.276;2022-11-09T06:30:26;100545.03;;;11.66;59.76
74958;BME280;63741;42.624;26.276;2022-11-09T06:32:59;100540.53;;;11.94;58.88
74958;BME280;63741;42.624;26.276;2022-11-09T06:35:27;100546.13;;;12.27;57.88
74958;BME280;63741;42.624;26.276;2022-11-09T06:37:56;100538.75;;;12.69;56.54
74958;BME280;63741;42.624;26.276;2022-11-09T06:40:23;100548.34;;;12.96;55.83
74958;BME280;63741;42.624;26.276;2022-11-09T06:42:50;100547.16;;;13.00;56.87
74958;BME280;63741;42.624;26.276;2022-11-09T06:45:17;100546.34;;;13.23;55.38
74958;BME280;63741;42.624;26.276;2022-11-09T06:47:44;100549.59;;;13.51;55.38
74958;BME280;63741;42.624;26.276;2022-11-09T06:50:11;100559.22;;;13.76;54.34
74958;BME280;63741;42.624;26.276;2022-11-09T06:52:38;100552.25;;;13.86;54.31
74958;BME280;63741;42.624;26.276;2022-11-09T06:55:05;100558.88;;;13.80;55.64
74958;BME280;63741;42.624;26.276;2022-11-09T06:57:33;100555.88;;;13.85;55.46
74958;BME280;63741;42.624;26.276;2022-11-09T07:00:00;100549.94;;;13.81;54.78
74958;BME280;63741;42.624;26.276;2022-11-09T07:02:28;100558.47;;;13.74;55.40
74958;BME280;63741;42.624;26.276;2022-11-09T07:04:55;100561.69;;;14.01;55.58
74958;BME280;63741;42.624;26.276;2022-11-09T07:07:22;100551.44;;;14.41;53.92
74958;BME280;63741;42.624;26.276;2022-11-09T07:09:53;100549.63;;;14.31;54.79
74958;BME280;63741;42.624;26.276;2022-11-09T07:12:21;100556.81;;;14.53;53.72
74958;BME280;63741;42.624;26.276;2022-11-09T07:14:48;100552.44;;;14.29;54.72
74958;BME280;63741;42.624;26.276;2022-11-09T07:17:15;100551.19;;;14.22;56.29
74958;BME280;63741;42.624;26.276;2022-11-09T07:19:42;100552.44;;;14.63;54.17
74958;BME280;63741;42.624;26.276;2022-11-09T07:22:09;100551.78;;;14.82;54.82
74958;BME280;63741;42.624;26.276;2022-11-09T07:24:36;100545.25;;;14.97;53.86
74958;BME280;63741;42.624;26.276;2022-11-09T07:27:03;100550.13;;;15.24;53.22
74958;BME280;63741;42.624;26.276;2022-11-09T07:29:30;100543.75;;;15.15;53.40
74958;BME280;63741;42.624;26.276;2022-11-09T07:31:57;100549.69;;;15.40;52.46
74958;BME280;63741;42.624;26.276;2022-11-09T07:34:24;100546.41;;;15.15;53.17
74958;BME280;63741;42.624;26.276;2022-11-09T07:36:54;100550.91;;;15.04;53.78
74958;BME280;63741;42.624;26.276;2022-11-09T07:39:21;100552.13;;;15.00;54.25
74958;BME280;63741;42.624;26.276;2022-11-09T07:41:48;100547.41;;;15.03;54.86
74958;BME280;63741;42.624;26.276;2022-11-09T07:44:15;100556.03;;;14.96;55.56
74958;BME280;63741;42.624;26.276;2022-11-09T07:46:47;100552.25;;;14.98;55.25
74958;BME280;63741;42.624;26.276;2022-11-09T07:49:15;100551.97;;;14.69;56.72
74958;BME280;63741;42.624;26.276;2022-11-09T07:51:42;100552.41;;;14.40;58.42
74958;BME280;63741;42.624;26.276;2022-11-09T07:54:10;100561.00;;;14.44;58.49
74958;BME280;63741;42.624;26.276;2022-11-09T07:56:37;100553.19;;;14.65;57.86
74958;BME280;63741;42.624;26.276;2022-11-09T07:59:04;100551.03;;;15.13;55.74
74958;BME280;63741;42.624;26.276;2022-11-09T08:01:31;100557.72;;;15.61;54.75
74958;BME280;63741;42.624;26.276;2022-11-09T08:03:58;100550.66;;;15.71;53.96
74958;BME280;63741;42.624;26.276;2022-11-09T08:06:24;100548.84;;;16.13;52.33
74958;BME280;63741;42.624;26.276;2022-11-09T08:08:54;100553.22;;;16.45;51.77
74958;BME280;63741;42.624;26.276;2022-11-09T08:11:21;100553.28;;;16.64;52.23
74958;BME280;63741;42.624;26.276;2022-11-09T08:13:48;100549.56;;;16.77;51.18
74958;BME280;63741;42.624;26.276;2022-11-09T08:16:15;100558.59;;;16.55;51.66
74958;BME280;63741;42.624;26.276;2022-11-09T08:18:42;100551.16;;;16.58;51.29
74958;BME280;63741;42.624;26.276;2022-11-09T08:21:09;100549.47;;;16.88;51.43
74958;BME280;63741;42.624;26.276;2022-11-09T08:23:36;100551.59;;;17.13;50.33
74958;BME280;63741;42.624;26.276;2022-11-09T08:26:05;100552.81;;;16.80;50.08
74958;BME280;63741;42.624;26.276;2022-11-09T08:28:33;100560.31;;;17.06;49.76
74958;BME280;63741;42.624;26.276;2022-11-09T08:31:02;100554.97;;;17.06;49.24
74958;BME280;63741;42.624;26.276;2022-11-09T08:33:36;100560.75;;;17.11;49.70
74958;BME280;63741;42.624;26.276;2022-11-09T08:36:14;100563.31;;;17.51;48.99
74958;BME280;63741;42.624;26.276;2022-11-09T08:38:43;100564.00;;;17.24;49.49
74958;BME280;63741;42.624;26.276;2022-11-09T08:41:11;100559.06;;;17.20;50.19
74958;BME280;63741;42.624;26.276;2022-11-09T08:43:39;100563.31;;;17.80;49.15
74958;BME280;63741;42.624;26.276;2022-11-09T08:46:06;100552.75;;;17.50;49.37
74958;BME280;63741;42.624;26.276;2022-11-09T08:48:33;100551.47;;;17.34;49.46
74958;BME280;63741;42.624;26.276;2022-11-09T08:51:00;100557.66;;;17.25;50.34
74958;BME280;63741;42.624;26.276;2022-11-09T08:53:28;100556.97;;;17.52;49.32
74958;BME280;63741;42.624;26.276;2022-11-09T08:55:55;100549.50;;;17.27;49.75
74958;BME280;63741;42.624;26.276;2022-11-09T08:58:22;100552.88;;;17.58;48.83
74958;BME280;63741;42.624;26.276;2022-11-09T09:00:49;100557.81;;;17.53;48.71
74958;BME280;63741;42.624;26.276;2022-11-09T09:03:16;100553.44;;;17.23;48.95
74958;BME280;63741;42.624;26.276;2022-11-09T09:05:43;100547.78;;;16.97;49.33
74958;BME280;63741;42.624;26.276;2022-11-09T09:08:10;100556.41;;;17.39;48.82
74958;BME280;63741;42.624;26.276;2022-11-09T09:10:38;100557.53;;;17.65;47.77
74958;BME280;63741;42.624;26.276;2022-11-09T09:13:06;100549.66;;;17.83;48.05
74958;BME280;63741;42.624;26.276;2022-11-09T09:15:33;100554.88;;;17.75;47.09
74958;BME280;63741;42.624;26.276;2022-11-09T09:18:03;100555.28;;;17.80;46.80
74958;BME280;63741;42.624;26.276;2022-11-09T09:20:31;100539.22;;;17.71;47.76
74958;BME280;63741;42.624;26.276;2022-11-09T09:22:59;100536.97;;;17.66;47.53
74958;BME280;63741;42.624;26.276;2022-11-09T09:25:26;100543.44;;;17.73;47.48
74958;BME280;63741;42.624;26.276;2022-11-09T09:27:53;100543.59;;;17.81;46.93
74958;BME280;63741;42.624;26.276;2022-11-09T09:30:20;100541.22;;;17.20;48.13
74958;BME280;63741;42.624;26.276;2022-11-09T09:32:47;100536.28;;;16.65;50.11
74958;BME280;63741;42.624;26.276;2022-11-09T09:35:14;100540.13;;;16.42;50.29
74958;BME280;63741;42.624;26.276;2022-11-09T09:37:42;100537.88;;;16.47;50.72
74958;BME280;63741;42.624;26.276;2022-11-09T09:40:46;100538.28;;;16.42;50.14
74958;BME280;63741;42.624;26.276;2022-11-09T09:43:39;100543.66;;;16.12;51.36
74958;BME280;63741;42.624;26.276;2022-11-09T09:52:03;100527.47;;;16.34;51.25
74958;BME280;63741;42.624;26.276;2022-11-09T09:54:41;100527.38;;;16.25;50.98
74958;BME280;63741;42.624;26.276;2022-11-09T09:57:16;100529.38;;;16.23;50.19
74958;BME280;63741;42.624;26.276;2022-11-09T09:59:48;100521.56;;;16.40;50.15
74958;BME280;63741;42.624;26.276;2022-11-09T10:02:36;100525.22;;;16.39;49.86
74958;BME280;63741;42.624;26.276;2022-11-09T10:05:08;100516.84;;;17.13;48.29
74958;BME280;63741;42.624;26.276;2022-11-09T10:21:17;100504.16;;;18.85;43.97
74958;BME280;63741;42.624;26.276;2022-11-09T10:26:57;100492.59;;;19.56;42.68
74958;BME280;63741;42.624;26.276;2022-11-09T10:29:26;100506.56;;;19.86;41.88
74958;BME280;63741;42.624;26.276;2022-11-09T10:31:57;100501.25;;;20.20;41.34
74958;BME280;63741;42.624;26.276;2022-11-09T10:34:36;100492.91;;;19.35;42.90
74958;BME280;63741;42.624;26.276;2022-11-09T10:37:11;100489.41;;;19.17;43.14
74958;BME280;63741;42.624;26.276;2022-11-09T10:39:51;100490.69;;;18.95;44.19
74958;BME280;63741;42.624;26.276;2022-11-09T10:42:43;100480.53;;;18.99;44.77
74958;BME280;63741;42.624;26.276;2022-11-09T10:45:34;100484.19;;;18.98;44.08
74958;BME280;63741;42.624;26.276;2022-11-09T10:48:32;100484.03;;;19.35;43.69
74958;BME280;63741;42.624;26.276;2022-11-09T10:54:28;100473.47;;;19.33;43.07
74958;BME280;63741;42.624;26.276;2022-11-09T10:57:20;100478.28;;;19.48;43.84
74958;BME280;63741;42.624;26.276;2022-11-09T11:00:16;100462.31;;;19.90;42.44
74958;BME280;63741;42.624;26.276;2022-11-09T11:03:14;100462.22;;;20.42;41.09
74958;BME280;63741;42.624;26.276;2022-11-09T11:06:05;100450.06;;;19.95;41.84
74958;BME280;63741;42.624;26.276;2022-11-09T11:12:12;100454.00;;;20.01;43.38
74958;BME280;63741;42.624;26.276;2022-11-09T11:14:57;100455.06;;;19.82;42.70
74958;BME280;63741;42.624;26.276;2022-11-09T11:17:43;100446.06;;;19.65;42.74
74958;BME280;63741;42.624;26.276;2022-11-09T11:20:34;100448.94;;;19.98;42.05
74958;BME280;63741;42.624;26.276;2022-11-09T11:23:22;100446.44;;;19.71;41.96
74958;BME280;63741;42.624;26.276;2022-11-09T11:26:23;100437.66;;;19.94;42.24
74958;BME280;63741;42.624;26.276;2022-11-09T11:29:37;100435.63;;;20.65;40.67
74958;BME280;63741;42.624;26.276;2022-11-09T11:32:28;100437.16;;;20.33;41.00
74958;BME280;63741;42.624;26.276;2022-11-09T12:03:20;100410.28;;;20.33;40.81
74958;BME280;63741;42.624;26.276;2022-11-09T12:12:59;100405.16;;;20.06;41.09
74958;BME280;63741;42.624;26.276;2022-11-09T12:16:03;100399.84;;;19.80;41.54
74958;BME280;63741;42.624;26.276;2022-11-09T12:22:00;100396.09;;;20.07;41.18
74958;BME280;63741;42.624;26.276;2022-11-09T12:37:19;100392.56;;;20.06;41.19
74958;BME280;63741;42.624;26.276;2022-11-09T12:40:31;100399.22;;;19.94;40.83
74958;BME280;63741;42.624;26.276;2022-11-09T12:43:29;100389.03;;;19.72;42.45
74958;BME280;63741;42.624;26.276;2022-11-09T12:46:18;100396.28;;;19.53;42.44
74958;BME280;63741;42.624;26.276;2022-11-09T12:49:33;100394.53;;;19.18;43.45
74958;BME280;63741;42.624;26.276;2022-11-09T12:52:21;100391.69;;;19.19;43.33
74958;BME280;63741;42.624;26.276;2022-11-09T12:58:30;100394.94;;;19.75;42.92
74958;BME280;63741;42.624;26.276;2022-11-09T13:04:16;100393.84;;;19.16;43.26
74958;BME280;63741;42.624;26.276;2022-11-09T13:09:53;100385.31;;;19.99;42.92
74958;BME280;63741;42.624;26.276;2022-11-09T13:12:39;100384.78;;;19.87;42.38
74958;BME280;63741;42.624;26.276;2022-11-09T13:15:29;100389.69;;;20.00;41.76
74958;BME280;63741;42.624;26.276;2022-11-09T13:21:32;100383.34;;;19.49;43.43
74958;BME280;63741;42.624;26.276;2022-11-09T13:33:17;100385.84;;;18.98;43.81
74958;BME280;63741;42.624;26.276;2022-11-09T13:39:28;100385.34;;;18.67;44.59
74958;BME280;63741;42.624;26.276;2022-11-09T13:48:39;100385.63;;;18.28;45.21
74958;BME280;63741;42.624;26.276;2022-11-09T13:54:34;100385.81;;;18.44;45.25
74958;BME280;63741;42.624;26.276;2022-11-09T13:57:21;100392.19;;;18.34;45.97
74958;BME280;63741;42.624;26.276;2022-11-09T14:00:34;100375.31;;;18.06;46.13
74958;BME280;63741;42.624;26.276;2022-11-09T14:03:28;100382.69;;;17.94;46.39
74958;BME280;63741;42.624;26.276;2022-11-09T14:06:14;100387.50;;;17.90;46.58
74958;BME280;63741;42.624;26.276;2022-11-09T14:09:00;100388.28;;;17.54;47.15
74958;BME280;63741;42.624;26.276;2022-11-09T14:11:58;100390.44;;;17.50;47.56
74958;BME280;63741;42.624;26.276;2022-11-09T14:15:15;100387.97;;;17.20;48.07
74958;BME280;63741;42.624;26.276;2022-11-09T14:24:17;100388.13;;;16.79;49.43
74958;BME280;63741;42.624;26.276;2022-11-09T14:29:57;100394.13;;;16.62;49.74
74958;BME280;63741;42.624;26.276;2022-11-09T14:32:48;100396.81;;;16.52;50.21
74958;BME280;63741;42.624;26.276;2022-11-09T14:35:34;100395.09;;;16.41;50.76
74958;BME280;63741;42.624;26.276;2022-11-09T14:38:31;100395.81;;;16.43;50.03
74958;BME280;63741;42.624;26.276;2022-11-09T14:41:22;100391.81;;;16.18;50.80
74958;BME280;63741;42.624;26.276;2022-11-09T14:44:26;100400.50;;;16.21;50.49
74958;BME280;63741;42.624;26.276;2022-11-09T14:47:28;100398.09;;;16.08;50.93
74958;BME280;63741;42.624;26.276;2022-11-09T14:50:29;100394.94;;;15.93;51.21
74958;BME280;63741;42.624;26.276;2022-11-09T14:53:20;100400.25;;;15.83;52.13
74958;BME280;63741;42.624;26.276;2022-11-09T14:56:09;100389.50;;;15.95;52.58
74958;BME280;63741;42.624;26.276;2022-11-09T14:58:56;100401.81;;;15.86;52.55
74958;BME280;63741;42.624;26.276;2022-11-09T15:01:57;100401.38;;;15.81;52.88
74958;BME280;63741;42.624;26.276;2022-11-09T15:07:44;100406.44;;;15.63;53.65
74958;BME280;63741;42.624;26.276;2022-11-09T15:10:31;100404.19;;;15.58;53.96
74958;BME280;63741;42.624;26.276;2022-11-09T15:13:18;100400.47;;;15.50;53.68
74958;BME280;63741;42.624;26.276;2022-11-09T15:16:05;100405.72;;;15.40;53.62
74958;BME280;63741;42.624;26.276;2022-11-09T15:18:51;100411.06;;;15.40;53.36
74958;BME280;63741;42.624;26.276;2022-11-09T15:21:36;100407.25;;;15.33;54.37
74958;BME280;63741;42.624;26.276;2022-11-09T15:24:24;100407.19;;;15.23;54.08
74958;BME280;63741;42.624;26.276;2022-11-09T15:27:32;100415.44;;;15.20;54.46